createdAt,value
2023-03-06T00:05:47.566Z,1
2023-03-06T00:07:52.315Z,1
2023-03-06T00:09:53.641Z,1
2023-03-06T00:11:54.930Z,1
2023-03-06T00:13:56.258Z,1
2023-03-06T00:15:57.732Z,1
2023-03-06T00:17:58.867Z,1
2023-03-06T00:22:04.778Z,1
2023-03-06T00:28:08.712Z,1
2023-03-06T00:30:09.963Z,1
2023-03-06T00:32:11.359Z,0.9
2023-03-06T00:34:12.689Z,0.9
2023-03-06T00:38:18.703Z,1
2023-03-06T00:40:20.052Z,1
2023-03-06T00:41:22.453Z,0.9
2023-03-06T00:43:23.748Z,0.9
2023-03-06T00:45:25.210Z,0.8
2023-03-06T00:49:31.183Z,0.8
2023-03-06T00:59:37.826Z,0.6
2023-03-06T01:01:39.138Z,0.6
2023-03-06T01:03:43.761Z,0.5
2023-03-06T01:09:47.772Z,0.5
2023-03-06T01:11:49.080Z,0.4
2023-03-06T01:13:50.414Z,0.5
2023-03-06T01:19:57.796Z,0.5
2023-03-06T01:21:59.125Z,0.6
2023-03-06T01:24:00.445Z,0.6
2023-03-06T01:26:01.813Z,0.6
2023-03-06T01:28:03.116Z,0.6
2023-03-06T01:30:04.459Z,0.6
2023-03-06T01:32:09.207Z,0.6
2023-03-06T01:34:10.531Z,0.6
2023-03-06T01:36:11.868Z,0.5
2023-03-06T01:37:14.216Z,0.6
2023-03-06T01:39:15.544Z,0.6
2023-03-06T01:41:16.886Z,0.5
2023-03-06T01:43:18.219Z,0.5
2023-03-06T01:45:22.963Z,0.5
2023-03-06T01:47:24.296Z,0.5
2023-03-06T01:49:25.637Z,0.6
2023-03-06T01:51:26.944Z,0.5
2023-03-06T01:53:28.272Z,0.5
2023-03-06T01:55:29.620Z,0.6
2023-03-06T02:01:36.973Z,0.5
2023-03-06T02:03:38.332Z,0.5
2023-03-06T02:05:39.682Z,0.4
2023-03-06T02:07:40.987Z,0.4
2023-03-06T02:13:48.417Z,0.4
2023-03-06T02:15:49.862Z,0.4
2023-03-06T02:17:51.103Z,0.5
2023-03-06T02:19:52.432Z,0.4
2023-03-06T02:21:53.775Z,0.4
2023-03-06T02:23:55.104Z,0.5
2023-03-06T02:25:56.417Z,0.4
2023-03-06T02:28:01.177Z,0.4
2023-03-06T02:30:02.484Z,0.4
2023-03-06T02:32:03.857Z,0.3
2023-03-06T02:33:06.086Z,0.3
2023-03-06T02:35:07.420Z,0.3
2023-03-06T02:37:08.769Z,0.4
2023-03-06T02:39:10.103Z,0.5
2023-03-06T02:41:14.843Z,0.5
2023-03-06T02:43:16.180Z,0.4
2023-03-06T02:47:18.814Z,0.6
2023-03-06T02:49:20.143Z,0.6
2023-03-06T02:51:21.449Z,0.6
2023-03-06T02:53:22.785Z,0.6
2023-03-06T02:55:27.522Z,0.6
2023-03-06T02:57:28.851Z,0.8
2023-03-06T02:59:30.139Z,0.8
2023-03-06T03:01:31.529Z,0.7
2023-03-06T03:03:32.809Z,0.7
2023-03-06T03:05:34.141Z,0.8
2023-03-06T03:09:40.219Z,0.8
2023-03-06T03:11:41.571Z,0.7
2023-03-06T03:15:44.321Z,0.7
2023-03-06T03:17:45.594Z,0.8
2023-03-06T03:19:46.906Z,0.7
2023-03-06T03:21:48.246Z,0.7
2023-03-06T03:23:52.990Z,0.8
2023-03-06T03:25:54.321Z,0.8
2023-03-06T03:27:55.678Z,0.7
2023-03-06T03:30:18.698Z,0.7
2023-03-06T03:32:20.087Z,0.7
2023-03-06T03:34:21.389Z,0.7
2023-03-06T03:36:26.128Z,0.7
2023-03-06T03:38:27.499Z,0.7
2023-03-06T03:40:28.843Z,0.7
2023-03-06T03:42:30.404Z,0.7
2023-03-06T03:44:31.737Z,0.8
2023-03-06T03:46:33.149Z,0.8
2023-03-06T03:48:34.466Z,0.9
2023-03-06T03:50:39.232Z,0.8
2023-03-06T03:54:41.925Z,0.8
2023-03-06T03:56:43.286Z,0.8
2023-03-06T03:58:44.628Z,0.8
2023-03-06T04:00:45.980Z,0.8
2023-03-06T04:08:54.653Z,0.9
2023-03-06T04:10:56.020Z,0.9
2023-03-06T04:14:58.712Z,0.9
2023-03-06T04:16:59.955Z,0.9
2023-03-06T04:23:08.724Z,1
2023-03-06T04:24:11.110Z,1
2023-03-06T04:26:12.444Z,0.9
2023-03-06T04:28:13.708Z,0.9
2023-03-06T04:30:15.032Z,1
2023-03-06T04:32:21.513Z,1.1
2023-03-06T04:34:21.040Z,1.1
2023-03-06T04:36:22.410Z,1.1
2023-03-06T04:42:26.496Z,1.3
2023-03-06T04:44:27.847Z,1.4
2023-03-06T04:46:32.609Z,1.4
2023-03-06T04:48:33.974Z,1.4
2023-03-06T04:50:35.325Z,1.4
2023-03-06T04:56:39.289Z,1.4
2023-03-06T04:58:40.534Z,1.3
2023-03-06T05:00:45.088Z,1.4
2023-03-06T05:02:46.445Z,1.4
2023-03-06T05:04:47.693Z,1.3
2023-03-06T05:06:49.017Z,1.3
2023-03-06T05:08:50.234Z,1.3
2023-03-06T05:10:51.527Z,1.3
2023-03-06T05:12:52.844Z,1.2
2023-03-06T05:14:57.426Z,1.2
2023-03-06T05:16:58.777Z,1.2
2023-03-06T05:19:00.099Z,1.2
2023-03-06T05:22:03.721Z,1.2
2023-03-06T05:24:05.057Z,1.2
2023-03-06T05:26:06.430Z,1.1
2023-03-06T05:28:11.096Z,1.2
2023-03-06T05:30:12.430Z,1.1
2023-03-06T05:32:13.858Z,1.2
2023-03-06T05:34:15.197Z,1.2
2023-03-06T05:36:16.484Z,1.1
2023-03-06T05:38:17.834Z,1.1
2023-03-06T05:40:19.202Z,1.1
2023-03-06T05:42:23.866Z,1.2
2023-03-06T05:44:25.137Z,1.1
2023-03-06T05:46:26.410Z,1.2
2023-03-06T05:48:27.747Z,1.2
2023-03-06T05:50:28.990Z,1.2
2023-03-06T05:52:30.269Z,1.3
2023-03-06T05:54:31.520Z,1.3
2023-03-06T05:56:36.189Z,1.2
2023-03-06T05:58:37.462Z,1.2
2023-03-06T06:00:38.707Z,1.2
2023-03-06T06:02:40.153Z,1.2
2023-03-06T06:04:41.313Z,1.3
2023-03-06T06:06:42.568Z,1.3
2023-03-06T06:10:48.677Z,1.3
2023-03-06T06:12:49.843Z,1.3
2023-03-06T06:21:57.375Z,1.5
2023-03-06T06:24:01.957Z,1.6
2023-03-06T06:26:03.279Z,1.6
2023-03-06T06:28:04.464Z,1.6
2023-03-06T06:30:08.320Z,1.6
2023-03-06T06:32:07.248Z,1.6
2023-03-06T06:34:08.518Z,1.7
2023-03-06T06:36:09.845Z,1.7
2023-03-06T06:38:14.424Z,1.7
2023-03-06T06:40:15.702Z,1.7
2023-03-06T06:42:33.008Z,1.8
2023-03-06T06:44:18.267Z,1.7
2023-03-06T06:46:39.919Z,1.8
2023-03-06T06:48:20.855Z,1.8
2023-03-06T06:50:22.065Z,1.9
2023-03-06T06:52:26.873Z,2
2023-03-06T06:54:28.121Z,2
2023-03-06T06:56:29.391Z,2
2023-03-06T06:58:30.654Z,2
2023-03-06T07:00:32.038Z,2.1
2023-03-06T07:02:33.388Z,2.1
2023-03-06T07:04:34.684Z,2.1
2023-03-06T07:06:39.238Z,2.1
2023-03-06T07:08:40.530Z,2.1
2023-03-06T07:13:02.697Z,2.2
2023-03-06T07:15:04.024Z,2.2
2023-03-06T07:17:05.266Z,2.2
2023-03-06T07:19:09.879Z,2.3
2023-03-06T07:21:11.183Z,2.3
2023-03-06T07:23:12.468Z,2.4
2023-03-06T07:27:15.137Z,2.4
2023-03-06T07:29:16.427Z,2.5
2023-03-06T07:31:17.815Z,2.6
2023-03-06T07:43:28.887Z,3.6
2023-03-06T07:45:30.193Z,3.6
2023-03-06T07:49:36.087Z,4.8
2023-03-06T07:51:37.430Z,5.7
2023-03-06T07:53:38.691Z,6.3
2023-03-06T07:55:40.028Z,6
2023-03-06T07:57:41.345Z,5.9
2023-03-06T07:59:42.607Z,5.9
2023-03-06T08:01:47.212Z,5.4
2023-03-06T08:03:48.574Z,4.9
2023-03-06T08:05:49.805Z,4.5
2023-03-06T08:06:52.140Z,3.9
2023-03-06T08:21:04.810Z,3.4
2023-03-06T08:23:06.118Z,3.3
2023-03-06T08:25:07.589Z,3.5
2023-03-06T08:27:08.744Z,4.2
2023-03-06T08:29:13.365Z,4.8
2023-03-06T08:31:14.792Z,4.9
2023-03-06T08:33:16.015Z,5.5
2023-03-06T08:35:17.340Z,6
2023-03-06T08:37:18.733Z,5.7
2023-03-06T08:39:20.058Z,6.2
2023-03-06T08:41:21.379Z,6.4
2023-03-06T08:43:25.995Z,5.9
2023-03-06T08:45:27.352Z,5.3
2023-03-06T08:47:28.685Z,5.6
2023-03-06T08:49:29.970Z,5.6
2023-03-06T08:51:31.310Z,5.5
2023-03-06T08:53:42.585Z,5.2
2023-03-06T08:55:33.994Z,5.4
2023-03-06T08:57:38.624Z,4.5
2023-03-06T08:59:39.964Z,4.2
2023-03-06T09:01:41.310Z,4.4
2023-03-06T09:04:44.929Z,5.2
2023-03-06T09:06:46.254Z,5.3
2023-03-06T09:08:47.598Z,5
2023-03-06T09:10:52.292Z,5.3
2023-03-06T09:12:54.910Z,5.4
2023-03-06T09:14:54.887Z,5.3
2023-03-06T09:16:56.292Z,5.2
2023-03-06T09:18:57.560Z,5.3
2023-03-06T09:23:00.264Z,5.1
2023-03-06T09:25:04.892Z,4.9
2023-03-06T09:27:06.243Z,4.9
2023-03-06T09:29:07.583Z,4.9
2023-03-06T09:31:09.007Z,4.7
2023-03-06T09:33:10.241Z,4.7
2023-03-06T09:35:11.557Z,4.7
2023-03-06T09:37:12.893Z,5.1
2023-03-06T09:39:17.535Z,5.7
2023-03-06T09:41:18.883Z,5.9
2023-03-06T09:43:20.239Z,6.4
2023-03-06T09:45:21.650Z,7.2
2023-03-06T09:47:22.994Z,7.4
2023-03-06T09:49:24.304Z,7.6
2023-03-06T09:51:25.681Z,7.4
2023-03-06T09:53:30.271Z,7.1
2023-03-06T09:55:31.658Z,7.3
2023-03-06T09:57:32.983Z,7.5
2023-03-06T10:00:36.699Z,7.7
2023-03-06T10:08:46.919Z,6.6
2023-03-06T10:10:48.218Z,6.5
2023-03-06T10:12:49.560Z,7
2023-03-06T10:14:50.917Z,7.2
2023-03-06T10:16:52.253Z,7.2
2023-03-06T10:18:53.622Z,6.3
2023-03-06T10:21:00.933Z,6.8
2023-03-06T10:23:03.104Z,6.9
2023-03-06T10:25:00.980Z,6.8
2023-03-06T10:27:02.388Z,6.5
2023-03-06T10:29:03.701Z,7.3
2023-03-06T10:31:05.110Z,7.3
2023-03-06T10:33:06.454Z,7.7
2023-03-06T10:35:11.100Z,8.6
2023-03-06T10:37:12.452Z,8.2
2023-03-06T10:39:13.836Z,7.2
2023-03-06T10:41:15.232Z,7.6
2023-03-06T10:43:16.570Z,6.8
2023-03-06T10:45:17.948Z,6.8
2023-03-06T10:47:19.307Z,7.6
2023-03-06T10:49:23.977Z,7.6
2023-03-06T10:53:26.755Z,7
2023-03-06T10:55:49.592Z,7.3
2023-03-06T10:57:50.958Z,7.3
2023-03-06T10:59:52.316Z,7.1
2023-03-06T11:01:57.364Z,7.1
2023-03-06T11:03:58.384Z,7.2
2023-03-06T11:05:59.746Z,7.1
2023-03-06T11:08:01.176Z,7
2023-03-06T11:10:02.605Z,6.6
2023-03-06T11:12:03.931Z,6.6
2023-03-06T11:16:10.034Z,7.5
2023-03-06T11:22:18.302Z,7.1
2023-03-06T11:24:15.511Z,7.6
2023-03-06T11:26:16.887Z,6.7
2023-03-06T11:28:18.262Z,6.7
2023-03-06T11:30:22.938Z,7.1
2023-03-06T11:32:24.326Z,7.2
2023-03-06T11:34:25.683Z,6.8
2023-03-06T11:36:27.070Z,6.7
2023-03-06T11:38:28.443Z,7
2023-03-06T11:46:37.266Z,6.8
2023-03-06T11:48:38.614Z,7.2
2023-03-06T11:49:40.935Z,7.6
2023-03-06T11:51:42.319Z,7.7
2023-03-06T12:07:56.604Z,9.1
2023-03-06T12:09:57.952Z,9
2023-03-06T12:18:06.715Z,8.6
2023-03-06T12:22:09.486Z,7.3
2023-03-06T12:24:10.831Z,7.4
2023-03-06T12:28:16.930Z,7.6
2023-03-06T12:30:18.292Z,7.6
2023-03-06T12:32:19.774Z,7.5
2023-03-06T12:34:21.011Z,8.2
2023-03-06T12:36:22.426Z,8.2
2023-03-06T12:40:28.435Z,7.6
2023-03-06T12:45:33.560Z,7.8
2023-03-06T12:47:34.931Z,7.6
2023-03-06T12:49:36.296Z,7.5
2023-03-06T12:51:37.665Z,7.6
2023-03-06T12:53:42.346Z,7.8
2023-03-06T12:55:43.782Z,7.7
2023-03-06T12:57:45.075Z,7.5
2023-03-06T12:59:46.471Z,7.4
2023-03-06T13:01:47.921Z,7.6
2023-03-06T13:03:49.217Z,8
2023-03-06T13:05:50.736Z,8.6
2023-03-06T13:07:55.270Z,7.7
2023-03-06T13:09:56.655Z,7.7
2023-03-06T13:11:58.046Z,7.7
2023-03-06T13:13:59.396Z,7.9
2023-03-06T13:16:01.861Z,7.6
2023-03-06T13:18:02.131Z,7.5
2023-03-06T13:20:03.514Z,7.6
2023-03-06T13:22:08.233Z,7.6
2023-03-06T13:24:09.573Z,7.5
2023-03-06T13:26:10.948Z,7.5
2023-03-06T13:28:12.346Z,7.6
2023-03-06T13:30:13.719Z,7.2
2023-03-06T13:32:15.136Z,7.4
2023-03-06T13:34:16.472Z,7.5
2023-03-06T13:36:21.145Z,7.4
2023-03-06T13:38:22.528Z,7.4
2023-03-06T13:40:23.874Z,7.4
2023-03-06T13:41:26.232Z,7.4
2023-03-06T13:43:27.612Z,7.5
2023-03-06T13:45:29.011Z,7.6
2023-03-06T13:47:30.356Z,7.5
2023-03-06T13:49:35.058Z,8
2023-03-06T13:51:36.427Z,7.9
2023-03-06T13:53:38.487Z,7.9
2023-03-06T13:55:39.848Z,7.9
2023-03-06T13:57:41.247Z,7.7
2023-03-06T13:59:42.624Z,7.5
2023-03-06T14:01:44.028Z,7.4
2023-03-06T14:03:48.689Z,7.4
2023-03-06T14:05:50.043Z,7.4
2023-03-06T14:07:51.426Z,7.7
2023-03-06T14:09:52.822Z,7.7
2023-03-06T14:11:54.177Z,7.9
2023-03-06T14:13:56.435Z,7.9
2023-03-06T14:15:57.816Z,7.7
2023-03-06T14:18:02.487Z,7.9
2023-03-06T14:20:03.872Z,8
2023-03-06T14:22:05.206Z,7.7
2023-03-06T14:24:06.586Z,7.8
2023-03-06T14:26:07.935Z,7.6
2023-03-06T14:28:14.049Z,7.5
2023-03-06T14:30:10.686Z,7.2
2023-03-06T14:32:16.394Z,7
2023-03-06T14:34:17.708Z,7
2023-03-06T14:36:19.071Z,7
2023-03-06T14:38:47.984Z,7
2023-03-06T14:40:49.369Z,7
2023-03-06T14:42:51.933Z,6.8
2023-03-06T14:44:55.462Z,6.7
2023-03-06T14:46:56.794Z,6.7
2023-03-06T14:48:58.195Z,6.7
2023-03-06T14:50:59.556Z,6.7
2023-03-06T14:55:02.300Z,6.7
2023-03-06T14:57:03.665Z,6.7
2023-03-06T14:59:08.316Z,6.6
2023-03-06T15:03:11.082Z,6.6
2023-03-06T15:05:12.430Z,6.5
2023-03-06T15:07:13.864Z,6.4
2023-03-06T15:09:15.190Z,6.4
2023-03-06T15:11:16.545Z,6.3
2023-03-06T15:15:22.594Z,6.2
2023-03-06T15:17:23.973Z,6.3
2023-03-06T15:19:25.348Z,6.2
2023-03-06T15:21:26.726Z,6.2
2023-03-06T15:23:28.077Z,6.2
2023-03-06T15:25:29.461Z,6.1
2023-03-06T15:27:34.107Z,6.2
2023-03-06T15:29:35.437Z,5.8
2023-03-06T15:31:36.880Z,5.4
2023-03-06T15:38:44.057Z,4.5
2023-03-06T15:40:47.916Z,4.7
2023-03-06T15:42:49.283Z,4.7
2023-03-06T15:44:50.686Z,4.7
2023-03-06T15:46:59.174Z,4.7
2023-03-06T15:50:54.724Z,4.8
2023-03-06T15:52:56.025Z,4.8
2023-03-06T15:55:00.705Z,5
2023-03-06T15:57:02.081Z,5
2023-03-06T15:59:04.983Z,5.1
2023-03-06T16:01:06.315Z,5.1
2023-03-06T16:03:07.615Z,5.1
2023-03-06T16:07:10.357Z,4.9
2023-03-06T16:09:15.033Z,5
2023-03-06T16:11:16.432Z,5
2023-03-06T16:13:17.796Z,4.9
2023-03-06T16:15:19.158Z,4.9
2023-03-06T16:17:20.456Z,4.9
2023-03-06T16:19:26.730Z,4.8
2023-03-06T16:21:23.294Z,4.8
2023-03-06T16:23:27.872Z,4.7
2023-03-06T16:27:30.591Z,4.6
2023-03-06T16:28:32.931Z,4.5
2023-03-06T16:30:34.281Z,4.5
2023-03-06T16:32:35.689Z,4.4
2023-03-06T16:34:36.964Z,4.3
2023-03-06T16:36:41.618Z,4.3
2023-03-06T16:38:42.969Z,4.2
2023-03-06T16:40:44.298Z,4.1
2023-03-06T16:42:45.648Z,4.1
2023-03-06T16:44:46.986Z,4.1
2023-03-06T16:46:48.360Z,4
2023-03-06T16:48:49.715Z,4
2023-03-06T16:50:54.366Z,4
2023-03-06T16:52:55.669Z,3.9
2023-03-06T16:54:57.023Z,3.9
2023-03-06T16:56:58.366Z,3.8
2023-03-06T16:58:59.715Z,3.8
2023-03-06T17:01:01.070Z,3.8
2023-03-06T17:03:02.402Z,3.7
2023-03-06T17:05:07.153Z,3.8
2023-03-06T17:07:08.426Z,3.8
2023-03-06T17:09:09.761Z,3.8
2023-03-06T17:13:12.452Z,3.7
2023-03-06T17:19:19.764Z,3.4
2023-03-06T17:24:24.718Z,3.3
2023-03-06T17:26:26.133Z,3.3
2023-03-06T17:28:27.452Z,3.2
2023-03-06T17:30:28.814Z,3.2
2023-03-06T17:32:33.528Z,3.2
2023-03-06T17:34:34.737Z,3.1
2023-03-06T17:36:36.053Z,3.1
2023-03-06T17:38:37.387Z,3.1
2023-03-06T17:40:38.719Z,3.1
2023-03-06T17:42:40.044Z,3.1
2023-03-06T17:44:41.493Z,3.1
2023-03-06T17:46:46.362Z,3.1
2023-03-06T17:48:48.102Z,3.1
2023-03-06T17:50:49.398Z,3.1
2023-03-06T17:52:50.738Z,3.1
2023-03-06T17:54:52.036Z,3
2023-03-06T17:56:53.364Z,3.1
2023-03-06T17:58:54.684Z,3
2023-03-06T18:00:59.301Z,3.1
2023-03-06T18:03:00.606Z,3.1
2023-03-06T18:05:02.042Z,3
2023-03-06T18:07:03.229Z,3
2023-03-06T18:11:05.942Z,3.1
2023-03-06T18:13:07.265Z,3
2023-03-06T18:17:13.220Z,3
2023-03-06T18:19:14.541Z,3
2023-03-06T18:25:34.041Z,3
2023-03-06T18:27:38.629Z,3
2023-03-06T18:29:39.915Z,3
2023-03-06T18:31:41.275Z,3
2023-03-06T18:33:42.582Z,3
2023-03-06T18:35:43.937Z,2.9
2023-03-06T18:37:45.207Z,3
2023-03-06T18:39:46.486Z,3
2023-03-06T18:41:51.169Z,2.9
2023-03-06T18:43:52.569Z,2.9
2023-03-06T18:45:53.907Z,3
2023-03-06T18:49:56.508Z,3.1
2023-03-06T18:51:57.830Z,3
2023-03-06T18:53:59.241Z,2.9
2023-03-06T19:00:06.581Z,2.9
2023-03-06T19:02:08.840Z,3
2023-03-06T19:04:10.181Z,3
2023-03-06T19:06:11.479Z,2.9
2023-03-06T19:08:12.771Z,2.9
2023-03-06T19:10:17.384Z,2.9
2023-03-06T19:12:18.724Z,2.8
2023-03-06T19:14:20.055Z,2.8
2023-03-06T19:15:22.363Z,2.7
2023-03-06T19:17:25.023Z,2.8
2023-03-06T19:19:25.009Z,2.7
2023-03-06T19:21:26.333Z,2.8
2023-03-06T19:23:30.952Z,2.8
2023-03-06T19:27:33.544Z,2.7
2023-03-06T19:29:34.851Z,2.7
2023-03-06T19:31:36.221Z,2.7
2023-03-06T19:33:37.500Z,2.8
2023-03-06T19:35:38.907Z,2.7
2023-03-06T19:41:46.195Z,2.7
2023-03-06T19:43:47.482Z,2.7
2023-03-06T19:47:50.147Z,2.6
2023-03-06T19:49:51.472Z,2.7
2023-03-06T19:51:56.163Z,2.5
2023-03-06T19:53:57.592Z,2.5
2023-03-06T19:58:00.215Z,2.5
2023-03-06T20:00:01.548Z,2.4
2023-03-06T20:02:02.855Z,2.4
2023-03-06T20:04:04.194Z,2.3
2023-03-06T20:06:08.922Z,2.3
2023-03-06T20:08:10.224Z,2.4
2023-03-06T20:10:11.507Z,2.3
2023-03-06T20:11:13.820Z,2.3
2023-03-06T20:13:15.161Z,2.3
2023-03-06T20:15:16.475Z,2.3
2023-03-06T20:17:17.754Z,2.3
2023-03-06T20:19:22.376Z,2.3
2023-03-06T20:21:23.713Z,2.3
2023-03-06T20:23:25.084Z,2.3
2023-03-06T20:25:26.376Z,2.2
2023-03-06T20:27:27.722Z,2.3
2023-03-06T20:29:29.030Z,2.3
2023-03-06T20:31:30.462Z,2.3
2023-03-06T20:35:36.324Z,2.2
2023-03-06T20:37:37.594Z,2.2
2023-03-06T20:39:38.909Z,2.2
2023-03-06T20:41:40.236Z,2.2
2023-03-06T20:43:41.534Z,2.1
2023-03-06T20:45:42.821Z,2.1
2023-03-06T20:47:47.440Z,2.1
2023-03-06T20:49:48.739Z,2.2
2023-03-06T20:51:50.089Z,2.2
2023-03-06T20:53:51.357Z,2.1
2023-03-06T21:06:02.605Z,2.3
2023-03-06T21:07:04.995Z,2.3
2023-03-06T21:09:06.309Z,2.3
2023-03-06T21:11:07.608Z,2.3
2023-03-06T21:23:18.719Z,2.6
2023-03-06T21:31:27.453Z,2.7
2023-03-06T21:35:30.098Z,2.8
2023-03-06T21:49:44.116Z,3
2023-03-06T21:51:45.401Z,3.1
2023-03-06T21:53:46.823Z,3.1
2023-03-06T21:55:48.075Z,3.1
2023-03-06T22:04:22.253Z,3.3
2023-03-06T22:06:23.548Z,3.2
2023-03-06T22:08:24.843Z,3.3
2023-03-06T22:10:29.451Z,3.3
2023-03-06T22:12:30.784Z,3.3
2023-03-06T22:14:32.228Z,3.4
2023-03-06T22:16:33.686Z,3.4
2023-03-06T22:18:35.016Z,3.4
2023-03-06T22:20:36.328Z,3.4
2023-03-06T22:22:37.684Z,3.4
2023-03-06T22:24:42.347Z,3.5
2023-03-06T22:26:43.658Z,3.6
2023-03-06T22:28:44.973Z,3.5
2023-03-06T22:30:46.298Z,3.5
2023-03-06T22:32:47.684Z,3.5
2023-03-06T22:34:48.995Z,3.6
2023-03-06T22:36:50.316Z,3.6
2023-03-06T22:38:54.929Z,3.7
2023-03-06T22:40:56.260Z,3.6
2023-03-06T22:42:57.566Z,3.7
2023-03-06T22:44:58.878Z,3.8
2023-03-06T22:47:00.215Z,3.8
2023-03-06T22:53:07.505Z,3.9
2023-03-06T22:55:08.920Z,3.9
2023-03-06T22:57:10.318Z,3.9
2023-03-06T22:58:12.687Z,3.9
2023-03-06T23:04:16.811Z,3.8
2023-03-06T23:06:21.336Z,3.9
2023-03-06T23:08:22.667Z,3.9
2023-03-06T23:14:26.768Z,3.8
2023-03-06T23:16:27.948Z,3.8
2023-03-06T23:18:29.288Z,3.8
2023-03-06T23:20:33.883Z,3.7
2023-03-06T23:24:36.540Z,3.8
2023-03-06T23:26:37.873Z,3.7
2023-03-06T23:34:46.465Z,3.6
2023-03-06T23:36:47.813Z,3.7
2023-03-06T23:38:49.094Z,3.6
2023-03-06T23:40:50.431Z,3.6
2023-03-06T23:46:54.398Z,3.6
2023-03-06T23:48:59.024Z,3.6
2023-03-06T23:51:00.320Z,3.6
2023-03-06T23:53:01.650Z,3.6
2023-03-06T23:58:06.609Z,3.6
